Thomas G. Thompson — KTDQ — position and weather

sailwx.info

Track history (hours):
 
Tides and Currents Weather Stations Pressure Air Temp Water Temp Dewpoint Dewpoint Depression Visibility Wind Speed Wind Dir Waves Ship Positions

Oceanographic research ship Thomas G. Thompson (USA)

Ship's website: http://www.ocean.washington.edu/vessels/TGT/tgt.html

Detailed information on ship capabilities available from University of Delaware's Ocean Information Center.

Owner: UNIVERSITY OF WASHINGTON, SEATTLE, WA. More information available from US FCC via Universal Licensing System and Coast Guard Vessel Documentation Center.

Last reported at 2016-Feb-13 16:32 UTC. Time now 2016-Feb-13 17:20 UTC.
Position N 32°42' W 117°10'.

Type: Other ship. MMSI: 366345000.

Date/timePositionNaut miles runAvg speedWind from/ knotsBaromVisibWave heightAir tempDewpointWater temp
2016-Feb-13 16:32N 32°42' W 117°10'0 0.0
2016-Feb-13 15:32N 32°42' W 117°10'0 0.0
2016-Feb-13 14:32N 32°42' W 117°10'0 0.0
2016-Feb-13 13:32N 32°42' W 117°10'0 0.0
2016-Feb-13 12:32N 32°42' W 117°10'0 0.0
2016-Feb-13 11:32N 32°42' W 117°10'0 0.1
2016-Feb-13 10:32N 32°42' W 117°09'0 0.1
2016-Feb-13 09:32N 32°42' W 117°10'0 0.0
2016-Feb-13 08:32N 32°42' W 117°10'0 0.0
2016-Feb-13 07:32N 32°42' W 117°10'0 0.0
2016-Feb-13 06:32N 32°42' W 117°10'0 0.0
2016-Feb-13 05:32N 32°42' W 117°10'0 0.0
2016-Feb-13 04:29N 32°42' W 117°10'0 0.1
2016-Feb-13 03:32N 32°42' W 117°09'0 0.1
2016-Feb-13 02:32N 32°42' W 117°10'0 0.0
2016-Feb-13 01:32N 32°42' W 117°10'0 0.0
2016-Feb-13 00:32N 32°42' W 117°10'0 0.0
2016-Feb-12 23:29N 32°42' W 117°10'0 0.1
2016-Feb-12 22:32N 32°42' W 117°09'0 0.1
2016-Feb-12 21:32N 32°42' W 117°10'0 0.0
2016-Feb-12 20:32N 32°42' W 117°10'0 0.0
2016-Feb-12 19:32N 32°42' W 117°10'0 0.0
2016-Feb-12 18:29N 32°42' W 117°09'0 0.1
2016-Feb-12 17:32N 32°42' W 117°10'0 0.0
2016-Feb-12 16:32N 32°42' W 117°10'0 0.0
2016-Feb-12 15:32N 32°42' W 117°10'0 0.0
2016-Feb-12 14:32N 32°42' W 117°10'0 0.0
2016-Feb-12 13:32N 32°42' W 117°10'0 0.0
2016-Feb-12 12:32N 32°42' W 117°10'0 0.0
2016-Feb-12 11:32N 32°42' W 117°10'0 0.0
2016-Feb-12 10:32N 32°42' W 117°10'0 0.0
2016-Feb-12 09:32N 32°42' W 117°10'0 0.0
2016-Feb-12 08:32N 32°42' W 117°10'0 0.1
2016-Feb-12 07:32N 32°42' W 117°09'0 0.0
2016-Feb-12 06:32N 32°42' W 117°09'0 0.1
2016-Feb-12 05:32N 32°42' W 117°10'0 0.0
2016-Feb-12 04:32N 32°42' W 117°10'0 0.0
2016-Feb-12 03:32N 32°42' W 117°10'0 0.0
2016-Feb-12 02:29N 32°42' W 117°09'0 0.1
2016-Feb-12 01:32N 32°42' W 117°10'0 0.0
2016-Feb-12 00:32N 32°42' W 117°10'0 0.1
2016-Feb-11 23:32N 32°42' W 117°09'0 0.0
2016-Feb-11 22:32N 32°42' W 117°09'0 0.1
2016-Feb-11 21:32N 32°42' W 117°10'0 0.0
2016-Feb-11 20:32N 32°42' W 117°10'0 0.0
2016-Feb-11 19:32N 32°42' W 117°10'0 0.0
2016-Feb-11 18:32N 32°42' W 117°10'0 0.0
2016-Feb-11 17:32N 32°42' W 117°10'  
2016-Feb-07 22:33N 32°42' W 117°10'5 4.9
2016-Feb-07 21:33N 32°38' W 117°14'9 8.7
2016-Feb-07 20:33N 32°36' W 117°24'4 3.9
2016-Feb-07 19:33N 32°36' W 117°28'0 0.4
2016-Feb-07 18:33N 32°36' W 117°29'7 7.2
2016-Feb-07 17:33N 32°40' W 117°36'8 7.7
2016-Feb-07 16:33N 32°47' W 117°39'8 7.6
2016-Feb-07 15:33N 32°54' W 117°41'8 8.1
2016-Feb-07 14:33N 33°03' W 117°40'3 3.0
2016-Feb-07 13:33N 33°03' W 117°44'6 6.0
2016-Feb-07 12:33N 32°59' W 117°50'2 1.6
2016-Feb-07 11:33N 32°59' W 117°52'6 6.4
2016-Feb-07 10:33N 33°03' W 117°46'5 4.7
2016-Feb-07 09:33N 33°06' W 117°41'1 1.0
2016-Feb-07 08:33N 33°06' W 117°42'6 6.2
2016-Feb-07 07:33N 33°02' W 117°48'6 5.7
2016-Feb-07 06:33N 32°59' W 117°54'3 2.9
2016-Feb-07 05:33N 33°01' W 117°52'6 6.0
2016-Feb-07 04:33N 33°05' W 117°46'4 3.9
2016-Feb-07 03:33N 33°07' W 117°42'0 0.0
2016-Feb-07 02:34N 33°07' W 117°42'7 7.4
2016-Feb-07 01:33N 32°59' W 117°42'8 8.3
2016-Feb-07 00:33N 32°51' W 117°42'8 7.8
2016-Feb-06 23:33N 32°44' W 117°39'7 6.5
2016-Feb-06 22:33N 32°38' W 117°35'6 6.3
2016-Feb-06 21:33N 32°36' W 117°28'7 6.5
2016-Feb-06 20:32N 32°37' W 117°20'4 1.8
2016-Feb-06 18:33N 32°37' W 117°15'7 6.4
2016-Feb-06 17:32N 32°43' W 117°13'  
Track history (hours):
 
Tides and Currents Weather Stations Pressure Air Temp Water Temp Dewpoint Dewpoint Depression Visibility Wind Speed Wind Dir Waves Ship Positions

Oceanographic research ship Thomas G. Thompson (USA)

Ship's website: http://www.ocean.washington.edu/vessels/TGT/tgt.html

Detailed information on ship capabilities available from University of Delaware's Ocean Information Center.

Owner: UNIVERSITY OF WASHINGTON, SEATTLE, WA. More information available from US FCC via Universal Licensing System and Coast Guard Vessel Documentation Center.

Last reported at 2016-Feb-13 16:32 UTC. Time now 2016-Feb-13 17:20 UTC.
Position N 32°42' W 117°10'.

Type: Other ship. MMSI: 366345000.

Date/timePositionNaut miles runAvg speedWind from/ knotsBaromVisibWave heightAir tempDewpointWater temp
2016-Feb-13 16:32N 32°42' W 117°10'0 0.0
2016-Feb-13 15:32N 32°42' W 117°10'0 0.0
2016-Feb-13 14:32N 32°42' W 117°10'0 0.0
2016-Feb-13 13:32N 32°42' W 117°10'0 0.0
2016-Feb-13 12:32N 32°42' W 117°10'0 0.0
2016-Feb-13 11:32N 32°42' W 117°10'0 0.1
2016-Feb-13 10:32N 32°42' W 117°09'0 0.1
2016-Feb-13 09:32N 32°42' W 117°10'0 0.0
2016-Feb-13 08:32N 32°42' W 117°10'0 0.0
2016-Feb-13 07:32N 32°42' W 117°10'0 0.0
2016-Feb-13 06:32N 32°42' W 117°10'0 0.0
2016-Feb-13 05:32N 32°42' W 117°10'0 0.0
2016-Feb-13 04:29N 32°42' W 117°10'0 0.1
2016-Feb-13 03:32N 32°42' W 117°09'0 0.1
2016-Feb-13 02:32N 32°42' W 117°10'0 0.0
2016-Feb-13 01:32N 32°42' W 117°10'0 0.0
2016-Feb-13 00:32N 32°42' W 117°10'0 0.0
2016-Feb-12 23:29N 32°42' W 117°10'0 0.1
2016-Feb-12 22:32N 32°42' W 117°09'0 0.1
2016-Feb-12 21:32N 32°42' W 117°10'0 0.0
2016-Feb-12 20:32N 32°42' W 117°10'0 0.0
2016-Feb-12 19:32N 32°42' W 117°10'0 0.0
2016-Feb-12 18:29N 32°42' W 117°09'0 0.1
2016-Feb-12 17:32N 32°42' W 117°10'0 0.0
2016-Feb-12 16:32N 32°42' W 117°10'0 0.0
2016-Feb-12 15:32N 32°42' W 117°10'0 0.0
2016-Feb-12 14:32N 32°42' W 117°10'0 0.0
2016-Feb-12 13:32N 32°42' W 117°10'0 0.0
2016-Feb-12 12:32N 32°42' W 117°10'0 0.0
2016-Feb-12 11:32N 32°42' W 117°10'0 0.0
2016-Feb-12 10:32N 32°42' W 117°10'0 0.0
2016-Feb-12 09:32N 32°42' W 117°10'0 0.0
2016-Feb-12 08:32N 32°42' W 117°10'0 0.1
2016-Feb-12 07:32N 32°42' W 117°09'0 0.0
2016-Feb-12 06:32N 32°42' W 117°09'0 0.1
2016-Feb-12 05:32N 32°42' W 117°10'0 0.0
2016-Feb-12 04:32N 32°42' W 117°10'0 0.0
2016-Feb-12 03:32N 32°42' W 117°10'0 0.0
2016-Feb-12 02:29N 32°42' W 117°09'0 0.1
2016-Feb-12 01:32N 32°42' W 117°10'0 0.0
2016-Feb-12 00:32N 32°42' W 117°10'0 0.1
2016-Feb-11 23:32N 32°42' W 117°09'0 0.0
2016-Feb-11 22:32N 32°42' W 117°09'0 0.1
2016-Feb-11 21:32N 32°42' W 117°10'0 0.0
2016-Feb-11 20:32N 32°42' W 117°10'0 0.0
2016-Feb-11 19:32N 32°42' W 117°10'0 0.0
2016-Feb-11 18:32N 32°42' W 117°10'0 0.0
2016-Feb-11 17:32N 32°42' W 117°10'  
2016-Feb-07 22:33N 32°42' W 117°10'5 4.9
2016-Feb-07 21:33N 32°38' W 117°14'9 8.7
2016-Feb-07 20:33N 32°36' W 117°24'4 3.9
2016-Feb-07 19:33N 32°36' W 117°28'0 0.4
2016-Feb-07 18:33N 32°36' W 117°29'7 7.2
2016-Feb-07 17:33N 32°40' W 117°36'8 7.7
2016-Feb-07 16:33N 32°47' W 117°39'8 7.6
2016-Feb-07 15:33N 32°54' W 117°41'8 8.1
2016-Feb-07 14:33N 33°03' W 117°40'3 3.0
2016-Feb-07 13:33N 33°03' W 117°44'6 6.0
2016-Feb-07 12:33N 32°59' W 117°50'2 1.6
2016-Feb-07 11:33N 32°59' W 117°52'6 6.4
2016-Feb-07 10:33N 33°03' W 117°46'5 4.7
2016-Feb-07 09:33N 33°06' W 117°41'1 1.0
2016-Feb-07 08:33N 33°06' W 117°42'6 6.2
2016-Feb-07 07:33N 33°02' W 117°48'6 5.7
2016-Feb-07 06:33N 32°59' W 117°54'3 2.9
2016-Feb-07 05:33N 33°01' W 117°52'6 6.0
2016-Feb-07 04:33N 33°05' W 117°46'4 3.9
2016-Feb-07 03:33N 33°07' W 117°42'0 0.0
2016-Feb-07 02:34N 33°07' W 117°42'7 7.4
2016-Feb-07 01:33N 32°59' W 117°42'8 8.3
2016-Feb-07 00:33N 32°51' W 117°42'8 7.8
2016-Feb-06 23:33N 32°44' W 117°39'7 6.5
2016-Feb-06 22:33N 32°38' W 117°35'6 6.3
2016-Feb-06 21:33N 32°36' W 117°28'7 6.5
2016-Feb-06 20:32N 32°37' W 117°20'4 1.8
2016-Feb-06 18:33N 32°37' W 117°15'7 6.4
2016-Feb-06 17:32N 32°43' W 117°13'  

Dump ship's entire track history